createdAt,value
2018-12-08T00:00:51.297Z,84.30
2018-12-08T00:04:59.456Z,84.80
2018-12-08T00:09:07.619Z,85.20
2018-12-08T00:13:15.811Z,85.70
2018-12-08T00:17:23.969Z,87.00
2018-12-08T00:21:32.139Z,86.10
2018-12-08T00:25:40.318Z,86.80
2018-12-08T00:29:48.497Z,86.70
2018-12-08T00:33:56.699Z,86.50
2018-12-08T00:38:04.882Z,86.20
2018-12-08T00:42:13.062Z,86.10
2018-12-08T00:46:21.241Z,86.10
2018-12-08T00:50:29.412Z,86.00
2018-12-08T00:54:37.567Z,86.10
2018-12-08T00:58:45.752Z,85.20
2018-12-08T01:02:53.916Z,85.20
2018-12-08T01:07:02.093Z,85.50
2018-12-08T01:11:10.263Z,86.30
2018-12-08T01:15:18.436Z,86.60
2018-12-08T01:19:26.597Z,87.20
2018-12-08T01:23:34.744Z,87.40
2018-12-08T01:27:42.924Z,87.30
2018-12-08T01:31:51.100Z,87.60
2018-12-08T01:35:59.282Z,86.70
2018-12-08T01:40:07.464Z,86.00
2018-12-08T01:44:15.620Z,86.10
2018-12-08T01:48:23.771Z,85.40
2018-12-08T01:52:31.945Z,85.70
2018-12-08T01:56:40.120Z,86.50
2018-12-08T02:00:48.303Z,86.30
2018-12-08T02:04:56.477Z,85.70
2018-12-08T02:09:05.662Z,84.60
2018-12-08T02:13:13.876Z,84.50
2018-12-08T02:17:22.082Z,84.90
2018-12-08T02:21:30.312Z,84.60
2018-12-08T02:25:38.518Z,84.70
2018-12-08T02:29:46.736Z,84.60
2018-12-08T02:33:54.932Z,84.60
2018-12-08T02:38:03.229Z,84.90
2018-12-08T02:42:11.431Z,84.80
2018-12-08T02:46:19.634Z,85.30
2018-12-08T02:50:27.835Z,85.70
2018-12-08T02:54:36.066Z,85.80
2018-12-08T02:58:44.263Z,86.30
2018-12-08T03:02:52.491Z,86.20
2018-12-08T03:07:00.703Z,86.40
2018-12-08T03:11:08.924Z,86.50
2018-12-08T03:15:17.162Z,86.90
2018-12-08T03:19:25.411Z,87.10
2018-12-08T03:23:33.599Z,87.40
2018-12-08T03:27:41.802Z,88.00
2018-12-08T03:31:50.031Z,88.40
2018-12-08T03:35:58.232Z,89.20
2018-12-08T03:40:06.436Z,89.80
2018-12-08T03:44:14.651Z,90.10
2018-12-08T03:48:22.951Z,90.20
2018-12-08T03:52:31.170Z,90.20
2018-12-08T03:56:39.366Z,90.10
2018-12-08T04:00:47.559Z,90.20
2018-12-08T04:04:55.760Z,90.40
2018-12-08T04:09:05.086Z,90.50
2018-12-08T04:13:13.296Z,90.50
2018-12-08T04:17:21.501Z,90.70
2018-12-08T04:21:29.706Z,90.70
2018-12-08T04:25:37.927Z,90.80
2018-12-08T04:29:46.147Z,90.90
2018-12-08T04:33:54.396Z,91.00
2018-12-08T04:38:02.593Z,90.80
2018-12-08T04:42:10.832Z,90.90
2018-12-08T04:46:19.060Z,91.00
2018-12-08T04:50:27.264Z,90.80
2018-12-08T04:54:35.488Z,91.00
2018-12-08T04:58:43.692Z,91.10
2018-12-08T05:02:51.910Z,91.20
2018-12-08T05:07:00.114Z,91.20
2018-12-08T05:11:08.328Z,91.30
2018-12-08T05:15:16.542Z,91.30
2018-12-08T05:19:24.764Z,91.30
2018-12-08T05:23:32.977Z,91.10
2018-12-08T05:27:41.184Z,91.20
2018-12-08T05:31:49.406Z,91.20
2018-12-08T05:35:57.607Z,91.20
2018-12-08T05:40:05.857Z,91.20
2018-12-08T05:44:14.123Z,91.30
2018-12-08T05:48:22.313Z,91.00
2018-12-08T05:52:31.508Z,91.20
2018-12-08T05:56:39.713Z,91.30
2018-12-08T06:00:47.930Z,91.50
2018-12-08T06:04:56.098Z,91.60
2018-12-08T06:09:06.271Z,91.40
2018-12-08T06:13:14.448Z,91.30
2018-12-08T06:17:22.630Z,91.20
2018-12-08T06:21:36.858Z,91.30
2018-12-08T06:25:45.049Z,91.10
2018-12-08T06:29:53.542Z,91.30
2018-12-08T06:34:01.717Z,91.60
2018-12-08T06:38:09.893Z,91.90
2018-12-08T06:42:18.059Z,92.00
2018-12-08T06:46:26.217Z,92.10
2018-12-08T06:50:34.381Z,92.20
2018-12-08T06:54:42.542Z,91.60
2018-12-08T06:58:50.760Z,91.60
2018-12-08T07:02:58.898Z,90.80
2018-12-08T07:07:07.060Z,90.70
2018-12-08T07:11:15.233Z,90.90
2018-12-08T07:15:23.401Z,90.70
2018-12-08T07:19:31.587Z,91.00
2018-12-08T07:23:39.740Z,90.80
2018-12-08T07:27:47.899Z,90.90
2018-12-08T07:31:56.102Z,91.00
2018-12-08T07:36:04.253Z,91.10
2018-12-08T07:40:12.416Z,91.40
2018-12-08T07:44:20.597Z,91.70
2018-12-08T07:48:28.761Z,92.00
2018-12-08T07:52:36.988Z,92.20
2018-12-08T07:56:45.213Z,92.30
2018-12-08T08:00:53.429Z,92.40
2018-12-08T08:05:01.601Z,92.50
2018-12-08T08:09:09.760Z,92.60
2018-12-08T08:13:17.945Z,92.30
2018-12-08T08:17:26.105Z,92.10
2018-12-08T08:21:34.282Z,92.00
2018-12-08T08:25:42.537Z,92.00
2018-12-08T08:29:50.711Z,91.90
2018-12-08T08:33:58.884Z,91.90
2018-12-08T08:38:07.046Z,91.60
2018-12-08T08:42:15.242Z,91.40
2018-12-08T08:46:23.397Z,91.30
2018-12-08T08:50:31.576Z,91.40
2018-12-08T08:54:39.749Z,91.30
2018-12-08T08:58:47.917Z,91.20
2018-12-08T09:02:56.081Z,91.10
2018-12-08T09:07:04.244Z,91.20
2018-12-08T09:11:12.417Z,91.30
2018-12-08T09:15:20.586Z,91.60
2018-12-08T09:19:28.774Z,92.10
2018-12-08T09:23:36.929Z,92.10
2018-12-08T09:27:45.107Z,92.00
2018-12-08T09:31:53.277Z,92.30
2018-12-08T09:36:01.545Z,92.60
2018-12-08T09:40:09.769Z,92.50
2018-12-08T09:44:17.967Z,92.40
2018-12-08T09:48:26.129Z,92.40
2018-12-08T09:52:34.285Z,92.10
2018-12-08T09:56:42.453Z,91.90
2018-12-08T10:00:50.632Z,91.90
2018-12-08T10:04:58.790Z,92.00
2018-12-08T10:09:06.967Z,91.90
2018-12-08T10:13:15.221Z,91.70
2018-12-08T10:17:23.389Z,91.80
2018-12-08T10:21:31.557Z,91.80
2018-12-08T10:25:39.733Z,90.90
2018-12-08T10:29:47.992Z,91.10
2018-12-08T10:33:56.052Z,90.90
2018-12-08T10:38:05.146Z,90.80
2018-12-08T10:42:13.317Z,91.00
2018-12-08T10:46:21.483Z,90.50
2018-12-08T10:50:29.757Z,90.90
2018-12-08T10:54:37.921Z,91.10
2018-12-08T10:58:46.101Z,91.60
2018-12-08T11:02:55.609Z,91.40
2018-12-08T11:07:03.765Z,91.60
2018-12-08T11:11:11.941Z,91.40
2018-12-08T11:15:20.125Z,91.40
2018-12-08T11:19:28.290Z,91.30
2018-12-08T11:23:38.363Z,91.00
2018-12-08T11:27:44.615Z,91.10
2018-12-08T11:31:52.789Z,90.90
2018-12-08T11:36:00.988Z,90.80
2018-12-08T11:40:09.164Z,90.50
2018-12-08T11:44:17.339Z,90.20
2018-12-08T11:48:25.505Z,90.30
2018-12-08T11:52:33.737Z,90.40
2018-12-08T11:56:41.905Z,89.60
2018-12-08T12:00:50.081Z,89.90
2018-12-08T12:04:58.255Z,90.10
2018-12-08T12:09:07.728Z,90.10
2018-12-08T12:13:15.937Z,90.00
2018-12-08T12:17:24.177Z,89.60
2018-12-08T12:21:32.366Z,89.80
2018-12-08T12:25:40.549Z,89.80
2018-12-08T12:29:48.802Z,90.00
2018-12-08T12:33:56.977Z,89.60
2018-12-08T12:38:05.229Z,89.60
2018-12-08T12:42:13.402Z,90.00
2018-12-08T12:46:21.633Z,90.00
2018-12-08T12:50:29.820Z,89.90
2018-12-08T12:54:38.023Z,90.00
2018-12-08T12:58:46.208Z,90.00
2018-12-08T13:02:54.395Z,89.80
2018-12-08T13:07:02.569Z,90.00
2018-12-08T13:11:10.843Z,90.10
2018-12-08T13:15:19.080Z,90.10
2018-12-08T13:19:27.261Z,89.90
2018-12-08T13:23:35.549Z,89.30
2018-12-08T13:27:43.849Z,90.00
2018-12-08T13:31:52.045Z,90.20
2018-12-08T13:36:01.646Z,90.30
2018-12-08T13:40:09.825Z,90.20
2018-12-08T13:45:01.473Z,90.20
2018-12-08T13:49:09.646Z,89.90
2018-12-08T13:53:17.829Z,89.30
2018-12-08T13:57:25.998Z,89.20
2018-12-08T14:01:34.199Z,89.50
2018-12-08T14:05:42.353Z,90.10
2018-12-08T14:09:50.605Z,90.20
2018-12-08T14:13:58.790Z,90.30
2018-12-08T14:18:06.980Z,90.30
2018-12-08T14:22:15.217Z,90.40
2018-12-08T14:26:23.392Z,90.30
2018-12-08T14:30:31.653Z,89.90
2018-12-08T14:34:39.837Z,90.40
2018-12-08T14:38:48.026Z,90.20
2018-12-08T14:42:56.202Z,90.20
2018-12-08T14:47:04.400Z,90.50
2018-12-08T14:51:12.558Z,91.10
2018-12-08T14:55:20.745Z,90.70
2018-12-08T14:59:28.910Z,90.90
2018-12-08T15:03:37.194Z,90.80
2018-12-08T15:07:45.361Z,90.70
2018-12-08T15:11:53.629Z,90.90
2018-12-08T15:16:01.888Z,90.80
2018-12-08T15:20:10.041Z,90.50
2018-12-08T15:24:18.221Z,90.30
2018-12-08T15:28:26.546Z,90.40
2018-12-08T15:32:34.719Z,90.40
2018-12-08T15:36:42.901Z,90.20
2018-12-08T15:40:51.154Z,90.00
2018-12-08T15:44:59.338Z,89.80
2018-12-08T15:49:07.561Z,90.10
2018-12-08T15:53:15.721Z,90.30
2018-12-08T15:57:23.902Z,90.50
2018-12-08T16:01:32.062Z,90.80
2018-12-08T16:05:40.245Z,91.20
2018-12-08T16:09:48.441Z,91.60
2018-12-08T16:13:56.684Z,92.00
2018-12-08T16:18:04.886Z,92.20
2018-12-08T16:22:13.082Z,92.50
2018-12-08T16:26:21.285Z,92.60
2018-12-08T16:30:29.468Z,92.80
2018-12-08T16:34:37.672Z,92.80
2018-12-08T16:38:45.838Z,92.90
2018-12-08T16:42:54.010Z,93.00
2018-12-08T16:47:02.196Z,93.00
2018-12-08T16:51:10.385Z,93.20
2018-12-08T16:55:18.573Z,93.30
2018-12-08T16:59:26.745Z,93.40
2018-12-08T17:03:34.937Z,93.60
2018-12-08T17:07:43.205Z,93.60
2018-12-08T17:11:51.432Z,93.80
2018-12-08T17:15:59.655Z,93.90
2018-12-08T17:20:09.749Z,93.80
2018-12-08T17:24:17.938Z,94.00
2018-12-08T17:28:26.129Z,94.00
2018-12-08T17:32:34.412Z,94.20
2018-12-08T17:36:42.480Z,94.60
2018-12-08T17:40:50.649Z,94.10
2018-12-08T17:44:58.813Z,94.20
2018-12-08T17:49:06.986Z,94.20
2018-12-08T17:53:15.149Z,94.20
2018-12-08T17:57:23.361Z,94.30
2018-12-08T18:01:31.579Z,94.50
2018-12-08T18:05:39.808Z,94.50
2018-12-08T18:09:48.031Z,94.60
2018-12-08T18:13:56.258Z,94.60
2018-12-08T18:18:04.544Z,94.70
2018-12-08T18:22:12.939Z,94.70
2018-12-08T18:26:21.012Z,94.70
2018-12-08T18:30:29.217Z,94.90
2018-12-08T18:34:37.437Z,94.90
2018-12-08T18:38:45.653Z,95.10
2018-12-08T18:42:53.867Z,95.20
2018-12-08T18:47:02.174Z,95.10
2018-12-08T18:51:10.280Z,95.20
2018-12-08T18:55:18.897Z,95.10
2018-12-08T18:59:27.062Z,95.10
2018-12-08T19:03:35.237Z,95.10
2018-12-08T19:09:07.983Z,95.10
2018-12-08T19:13:16.160Z,95.00
2018-12-08T19:17:24.345Z,95.50
2018-12-08T19:21:32.506Z,95.40
2018-12-08T19:25:40.669Z,95.60
2018-12-08T19:29:48.837Z,95.50
2018-12-08T19:33:57.000Z,95.50
2018-12-08T19:38:05.160Z,95.30
2018-12-08T19:42:13.342Z,94.80
2018-12-08T19:46:21.513Z,94.80
2018-12-08T19:50:29.668Z,94.90
2018-12-08T19:54:37.873Z,94.90
2018-12-08T19:58:46.041Z,95.10
2018-12-08T20:02:54.203Z,95.20
2018-12-08T20:07:02.362Z,95.30
2018-12-08T20:11:10.536Z,95.30
2018-12-08T20:15:18.705Z,95.30
2018-12-08T20:19:26.878Z,95.60
2018-12-08T20:23:35.040Z,95.50
2018-12-08T20:27:43.196Z,95.50
2018-12-08T20:31:51.360Z,95.60
2018-12-08T20:35:59.525Z,95.70
2018-12-08T20:40:07.968Z,95.90
2018-12-08T20:44:16.121Z,96.00
2018-12-08T20:48:24.283Z,96.60
2018-12-08T20:52:32.462Z,96.30
2018-12-08T20:56:40.629Z,96.40
2018-12-08T21:00:48.785Z,96.40
2018-12-08T21:04:56.955Z,96.50
2018-12-08T21:09:05.681Z,96.60
2018-12-08T21:13:13.893Z,96.10
2018-12-08T21:17:22.134Z,95.60
2018-12-08T21:21:30.374Z,95.20
2018-12-08T21:25:38.553Z,95.00
2018-12-08T21:29:46.695Z,95.00
2018-12-08T21:33:54.868Z,94.70
2018-12-08T21:38:03.113Z,95.00
2018-12-08T21:42:11.287Z,94.30
2018-12-08T21:46:19.466Z,94.10
2018-12-08T21:50:29.243Z,93.80
2018-12-08T21:54:35.777Z,93.80
2018-12-08T21:58:43.953Z,93.90
2018-12-08T22:02:52.122Z,93.70
2018-12-08T22:07:00.281Z,93.60
2018-12-08T22:11:08.440Z,93.40
2018-12-08T22:15:17.757Z,93.40
2018-12-08T22:19:25.927Z,93.20
2018-12-08T22:23:34.085Z,93.10
2018-12-08T22:27:42.281Z,93.00
2018-12-08T22:31:50.445Z,92.10
2018-12-08T22:35:58.683Z,91.80
2018-12-08T22:40:07.321Z,91.60
2018-12-08T22:44:15.590Z,91.80
2018-12-08T22:48:23.668Z,92.00
2018-12-08T22:52:31.843Z,91.50
2018-12-08T22:56:40.013Z,91.60
2018-12-08T23:00:48.391Z,91.20
2018-12-08T23:04:56.557Z,90.60
2018-12-08T23:09:05.550Z,90.50
2018-12-08T23:13:13.725Z,90.80
2018-12-08T23:17:21.893Z,90.60
2018-12-08T23:21:30.085Z,90.40
2018-12-08T23:25:38.253Z,90.30
2018-12-08T23:29:46.408Z,90.20
2018-12-08T23:33:54.568Z,90.30
2018-12-08T23:38:02.738Z,90.30
2018-12-08T23:42:10.898Z,89.80
2018-12-08T23:46:19.057Z,89.70
2018-12-08T23:50:27.332Z,90.10
2018-12-08T23:54:35.497Z,90.40
2018-12-08T23:58:43.661Z,90.80
